Главная страница
METAR-TAF:

METAR-TAF

Аэропорты :

Pottstown Limerick Airport

Pottstown, Пенсильвания, США

широта: 40-14-18N, долгота: 075-33-26W, высота над уровнем моря: 89 м

Текущие метеонаблюдения

Эта сводка был подготовлена 32 минут назад, в 17:54 UTC
Ветер 5 Узел от южный
Температура 23°C
Влажность 61%
Давление 1012 hPa
Видимость: 16.1 км
Отдельные облака на высоте 3100 фута
Рассеянная облачность на высоте 10000 фута

METAR: KPTW 121754Z AUTO 19005KT 10SM SCT031 BKN100 23/15 A2988 RMK AO2 SLP114 T02280150 10228 20167 58000

Время: 14:26 (18:26 UTC)


TAF: отсутствует

Метеонаблюдения и прогнозы для более 4000 аэропортов (сводки METAR и TAF).

Имеющиеся станции представлены на карте желтыми и красными точками.

Чтобы увидеть название станции, наведите на нее мышь.

Затем щелкните, чтобы увидеть метеонаблюдения и метеопрогнозы.

Управление картой: чтобы увеличить масштаб, щелкните зеленые кнопки с черным крестиком; чтобы уменьшить масштаб, щелкните зеленую кнопку с тире; для просмотра соседних карт щелкайте зеленые стрелки.


METAR-TAF: